sensor_id;sensor_type;location;lat;lon;timestamp;pressure;altitude;pressure_sealevel;temperature;humidity
55347;BME280;41218;55.700;38.270;2023-03-31T00:04:11;99174.22;;;1.14;73.30
55347;BME280;41218;55.700;38.270;2023-03-31T00:09:32;99169.41;;;1.03;73.32
55347;BME280;41218;55.700;38.270;2023-03-31T00:14:47;99140.13;;;0.82;73.30
55347;BME280;41218;55.700;38.270;2023-03-31T00:19:55;99154.34;;;0.96;73.52
55347;BME280;41218;55.700;38.270;2023-03-31T00:25:13;99153.72;;;0.91;73.29
55347;BME280;41218;55.700;38.270;2023-03-31T00:30:33;99165.06;;;0.93;73.57
55347;BME280;41218;55.700;38.270;2023-03-31T00:36:03;99149.53;;;0.85;73.20
55347;BME280;41218;55.700;38.270;2023-03-31T00:41:29;99132.41;;;0.67;73.16
55347;BME280;41218;55.700;38.270;2023-03-31T00:47:09;99160.13;;;0.86;73.08
55347;BME280;41218;55.700;38.270;2023-03-31T00:52:27;99128.59;;;0.59;73.30
55347;BME280;41218;55.700;38.270;2023-03-31T00:57:45;99130.03;;;0.74;73.36
55347;BME280;41218;55.700;38.270;2023-03-31T01:02:59;99115.47;;;0.61;73.28
55347;BME280;41218;55.700;38.270;2023-03-31T01:08:24;99131.63;;;0.66;73.42
55347;BME280;41218;55.700;38.270;2023-03-31T01:13:45;99115.31;;;0.57;73.66
55347;BME280;41218;55.700;38.270;2023-03-31T01:19:00;99138.50;;;0.81;73.20
55347;BME280;41218;55.700;38.270;2023-03-31T01:52:47;99106.00;;;0.50;73.21
55347;BME280;41218;55.700;38.270;2023-03-31T01:58:18;99069.97;;;0.18;73.25
55347;BME280;41218;55.700;38.270;2023-03-31T02:08:58;99123.59;;;0.35;73.86
55347;BME280;41218;55.700;38.270;2023-03-31T02:14:14;99124.22;;;0.40;73.62
55347;BME280;41218;55.700;38.270;2023-03-31T02:19:34;99092.38;;;0.32;73.68
55347;BME280;41218;55.700;38.270;2023-03-31T02:24:49;99126.50;;;0.56;73.16
55347;BME280;41218;55.700;38.270;2023-03-31T02:29:58;99122.16;;;0.37;73.27
55347;BME280;41218;55.700;38.270;2023-03-31T02:35:14;99128.06;;;0.31;72.92
55347;BME280;41218;55.700;38.270;2023-03-31T02:40:25;99111.88;;;0.08;73.59
55347;BME280;41218;55.700;38.270;2023-03-31T02:45:41;99127.72;;;0.24;73.56
55347;BME280;41218;55.700;38.270;2023-03-31T02:51:15;99108.31;;;-0.01;73.47
55347;BME280;41218;55.700;38.270;2023-03-31T03:02:36;99088.50;;;0.07;73.42
55347;BME280;41218;55.700;38.270;2023-03-31T03:18:32;99090.28;;;0.12;73.90
55347;BME280;41218;55.700;38.270;2023-03-31T03:23:48;99093.63;;;0.09;73.99
55347;BME280;41218;55.700;38.270;2023-03-31T03:29:06;99070.28;;;-0.01;73.99
55347;BME280;41218;55.700;38.270;2023-03-31T03:34:30;99087.56;;;0.12;73.91
55347;BME280;41218;55.700;38.270;2023-03-31T03:40:03;99069.00;;;0.05;74.11
55347;BME280;41218;55.700;38.270;2023-03-31T03:45:22;99053.34;;;0.02;73.94
55347;BME280;41218;55.700;38.270;2023-03-31T03:56:18;99060.72;;;0.19;73.71
55347;BME280;41218;55.700;38.270;2023-03-31T04:01:25;99039.13;;;-0.04;73.91
55347;BME280;41218;55.700;38.270;2023-03-31T04:06:33;99015.09;;;-0.10;74.16
55347;BME280;41218;55.700;38.270;2023-03-31T04:11:50;99002.19;;;-0.13;73.41
55347;BME280;41218;55.700;38.270;2023-03-31T04:16:53;99063.09;;;0.12;74.02
55347;BME280;41218;55.700;38.270;2023-03-31T04:22:25;99042.19;;;0.21;74.00
55347;BME280;41218;55.700;38.270;2023-03-31T04:27:50;98997.72;;;-0.09;74.18
55347;BME280;41218;55.700;38.270;2023-03-31T04:33:11;99034.34;;;0.11;74.43
55347;BME280;41218;55.700;38.270;2023-03-31T04:38:30;99007.63;;;-0.05;74.29
55347;BME280;41218;55.700;38.270;2023-03-31T04:44:01;99018.50;;;0.04;74.48
55347;BME280;41218;55.700;38.270;2023-03-31T04:49:22;99007.16;;;0.02;74.26
55347;BME280;41218;55.700;38.270;2023-03-31T04:54:38;99039.63;;;0.25;74.35
55347;BME280;41218;55.700;38.270;2023-03-31T04:59:51;99064.09;;;0.42;74.46
55347;BME280;41218;55.700;38.270;2023-03-31T05:05:10;99052.59;;;0.45;74.25
55347;BME280;41218;55.700;38.270;2023-03-31T05:10:23;99040.75;;;0.41;74.06
55347;BME280;41218;55.700;38.270;2023-03-31T05:15:52;99036.13;;;0.42;74.03
55347;BME280;41218;55.700;38.270;2023-03-31T05:21:11;98992.94;;;0.23;74.18
55347;BME280;41218;55.700;38.270;2023-03-31T05:26:23;98994.38;;;0.29;73.92
55347;BME280;41218;55.700;38.270;2023-03-31T05:31:40;99016.13;;;0.46;73.99
55347;BME280;41218;55.700;38.270;2023-03-31T05:36:43;99003.81;;;0.49;73.98
55347;BME280;41218;55.700;38.270;2023-03-31T05:41:55;98999.34;;;0.53;73.94
55347;BME280;41218;55.700;38.270;2023-03-31T05:47:09;98951.03;;;0.32;73.65
55347;BME280;41218;55.700;38.270;2023-03-31T05:57:35;98965.72;;;0.57;73.75
55347;BME280;41218;55.700;38.270;2023-03-31T06:02:48;98919.38;;;0.36;73.91
55347;BME280;41218;55.700;38.270;2023-03-31T06:07:59;98961.91;;;0.41;73.99
55347;BME280;41218;55.700;38.270;2023-03-31T06:13:12;98993.25;;;0.56;73.72
55347;BME280;41218;55.700;38.270;2023-03-31T06:18:18;98983.50;;;0.46;74.37
55347;BME280;41218;55.700;38.270;2023-03-31T06:23:29;98986.81;;;0.60;74.34
55347;BME280;41218;55.700;38.270;2023-03-31T06:28:49;98985.22;;;0.68;74.18
55347;BME280;41218;55.700;38.270;2023-03-31T06:34:12;98983.63;;;0.67;74.00
55347;BME280;41218;55.700;38.270;2023-03-31T06:39:25;98967.66;;;0.57;74.11
55347;BME280;41218;55.700;38.270;2023-03-31T06:44:38;98973.56;;;0.59;74.07
55347;BME280;41218;55.700;38.270;2023-03-31T06:49:55;98975.28;;;0.72;74.26
55347;BME280;41218;55.700;38.270;2023-03-31T06:54:56;98980.41;;;0.74;74.03
55347;BME280;41218;55.700;38.270;2023-03-31T07:00:08;98966.63;;;0.79;74.17
55347;BME280;41218;55.700;38.270;2023-03-31T07:05:31;98943.59;;;0.76;74.38
55347;BME280;41218;55.700;38.270;2023-03-31T07:10:48;98942.63;;;0.81;74.53
55347;BME280;41218;55.700;38.270;2023-03-31T07:15:59;98966.59;;;0.96;74.07
55347;BME280;41218;55.700;38.270;2023-03-31T07:21:09;98914.81;;;0.67;73.94
55347;BME280;41218;55.700;38.270;2023-03-31T07:26:15;98949.63;;;0.99;73.67
55347;BME280;41218;55.700;38.270;2023-03-31T07:31:16;98938.63;;;0.78;73.95
55347;BME280;41218;55.700;38.270;2023-03-31T07:36:37;98964.06;;;0.91;74.42
55347;BME280;41218;55.700;38.270;2023-03-31T07:41:43;98937.50;;;0.88;74.21
55347;BME280;41218;55.700;38.270;2023-03-31T07:47:02;98947.03;;;1.03;73.61
55347;BME280;41218;55.700;38.270;2023-03-31T07:52:12;98934.25;;;1.04;73.40
55347;BME280;41218;55.700;38.270;2023-03-31T07:57:28;98941.94;;;1.02;73.57
55347;BME280;41218;55.700;38.270;2023-03-31T08:02:37;98936.81;;;1.00;74.09
55347;BME280;41218;55.700;38.270;2023-03-31T08:07:49;98928.28;;;1.10;74.17
55347;BME280;41218;55.700;38.270;2023-03-31T08:12:58;98904.81;;;0.97;74.18
55347;BME280;41218;55.700;38.270;2023-03-31T08:18:14;98919.19;;;1.06;73.96
55347;BME280;41218;55.700;38.270;2023-03-31T08:23:35;98887.22;;;0.94;74.16
55347;BME280;41218;55.700;38.270;2023-03-31T08:28:38;98898.66;;;1.09;73.51
55347;BME280;41218;55.700;38.270;2023-03-31T08:33:58;98909.56;;;1.09;73.79
55347;BME280;41218;55.700;38.270;2023-03-31T08:39:11;98896.75;;;1.09;73.96
55347;BME280;41218;55.700;38.270;2023-03-31T08:49:24;98879.34;;;1.02;73.88
55347;BME280;41218;55.700;38.270;2023-03-31T08:55:04;98852.50;;;0.91;73.99
55347;BME280;41218;55.700;38.270;2023-03-31T09:00:24;98878.44;;;1.18;74.03
55347;BME280;41218;55.700;38.270;2023-03-31T09:22:21;98844.31;;;1.21;74.00
55347;BME280;41218;55.700;38.270;2023-03-31T09:27:27;98781.41;;;0.93;73.90
55347;BME280;41218;55.700;38.270;2023-03-31T09:32:41;98822.28;;;1.14;74.08
55347;BME280;41218;55.700;38.270;2023-03-31T09:37:48;98841.44;;;1.26;74.03
55347;BME280;41218;55.700;38.270;2023-03-31T09:42:59;98833.19;;;1.14;74.59
55347;BME280;41218;55.700;38.270;2023-03-31T09:48:17;98797.75;;;0.93;74.43
55347;BME280;41218;55.700;38.270;2023-03-31T09:58:50;98830.56;;;1.17;74.36
55347;BME280;41218;55.700;38.270;2023-03-31T10:04:15;98858.16;;;1.37;74.25
55347;BME280;41218;55.700;38.270;2023-03-31T10:09:41;98825.41;;;1.25;74.44
55347;BME280;41218;55.700;38.270;2023-03-31T10:14:47;98830.94;;;1.37;74.36
55347;BME280;41218;55.700;38.270;2023-03-31T10:20:16;98805.50;;;1.33;74.12
55347;BME280;41218;55.700;38.270;2023-03-31T10:25:49;98811.59;;;1.30;74.36
55347;BME280;41218;55.700;38.270;2023-03-31T10:31:45;98779.00;;;1.21;74.53
55347;BME280;41218;55.700;38.270;2023-03-31T10:36:50;98779.13;;;1.25;74.40
55347;BME280;41218;55.700;38.270;2023-03-31T10:41:59;98785.66;;;1.32;74.94
55347;BME280;41218;55.700;38.270;2023-03-31T10:52:25;98783.78;;;1.45;74.77
55347;BME280;41218;55.700;38.270;2023-03-31T10:58:10;98782.19;;;1.44;74.91
55347;BME280;41218;55.700;38.270;2023-03-31T11:03:41;98762.69;;;1.42;74.94
55347;BME280;41218;55.700;38.270;2023-03-31T11:09:08;98788.28;;;1.41;74.93
55347;BME280;41218;55.700;38.270;2023-03-31T11:14:48;98751.56;;;1.47;75.04
55347;BME280;41218;55.700;38.270;2023-03-31T11:37:05;98737.94;;;1.47;75.43
55347;BME280;41218;55.700;38.270;2023-03-31T11:42:52;98711.88;;;1.25;75.44
55347;BME280;41218;55.700;38.270;2023-03-31T11:53:41;98698.06;;;1.30;75.47
55347;BME280;41218;55.700;38.270;2023-03-31T11:59:06;98673.06;;;1.16;75.50
55347;BME280;41218;55.700;38.270;2023-03-31T12:21:11;98651.84;;;1.22;75.67
55347;BME280;41218;55.700;38.270;2023-03-31T12:32:22;98667.19;;;1.26;75.65
55347;BME280;41218;55.700;38.270;2023-03-31T13:12:06;98633.97;;;1.33;75.99
55347;BME280;41218;55.700;38.270;2023-03-31T13:24:14;98638.34;;;1.46;75.64
55347;BME280;41218;55.700;38.270;2023-03-31T13:29:41;98647.63;;;1.45;75.42
55347;BME280;41218;55.700;38.270;2023-03-31T13:34:45;98644.31;;;1.39;76.10
55347;BME280;41218;55.700;38.270;2023-03-31T13:45:25;98637.66;;;1.49;75.66
55347;BME280;41218;55.700;38.270;2023-03-31T14:01:38;98628.56;;;1.45;75.90
55347;BME280;41218;55.700;38.270;2023-03-31T14:07:17;98621.19;;;1.46;76.05
55347;BME280;41218;55.700;38.270;2023-03-31T14:12:33;98621.31;;;1.49;76.09
55347;BME280;41218;55.700;38.270;2023-03-31T14:17:39;98611.09;;;1.46;76.46
55347;BME280;41218;55.700;38.270;2023-03-31T14:27:56;98619.50;;;1.53;76.20
55347;BME280;41218;55.700;38.270;2023-03-31T14:38:26;98621.78;;;1.51;76.43
55347;BME280;41218;55.700;38.270;2023-03-31T14:43:36;98617.56;;;1.54;76.49
55347;BME280;41218;55.700;38.270;2023-03-31T14:48:46;98621.56;;;1.56;76.32
55347;BME280;41218;55.700;38.270;2023-03-31T14:53:47;98618.50;;;1.58;76.06
55347;BME280;41218;55.700;38.270;2023-03-31T14:58:50;98607.25;;;1.59;76.09
55347;BME280;41218;55.700;38.270;2023-03-31T15:03:53;98594.66;;;1.55;76.28
55347;BME280;41218;55.700;38.270;2023-03-31T15:08:56;98607.06;;;1.65;76.00
55347;BME280;41218;55.700;38.270;2023-03-31T15:13:58;98586.50;;;1.55;75.93
55347;BME280;41218;55.700;38.270;2023-03-31T15:19:06;98600.69;;;1.60;75.77
55347;BME280;41218;55.700;38.270;2023-03-31T15:24:12;98593.06;;;1.54;76.04
55347;BME280;41218;55.700;38.270;2023-03-31T15:34:24;98596.03;;;1.61;75.91
55347;BME280;41218;55.700;38.270;2023-03-31T15:39:31;98587.75;;;1.57;75.80
55347;BME280;41218;55.700;38.270;2023-03-31T15:44:42;98590.13;;;1.59;75.86
55347;BME280;41218;55.700;38.270;2023-03-31T15:49:49;98588.53;;;1.58;75.81
55347;BME280;41218;55.700;38.270;2023-03-31T15:54:51;98588.97;;;1.60;75.87
55347;BME280;41218;55.700;38.270;2023-03-31T15:59:51;98593.78;;;1.63;76.00
55347;BME280;41218;55.700;38.270;2023-03-31T16:04:57;98589.09;;;1.64;75.93
55347;BME280;41218;55.700;38.270;2023-03-31T16:09:59;98592.16;;;1.62;75.78
55347;BME280;41218;55.700;38.270;2023-03-31T16:15:06;98596.81;;;1.62;75.69
55347;BME280;41218;55.700;38.270;2023-03-31T16:20:23;98591.38;;;1.62;75.84
55347;BME280;41218;55.700;38.270;2023-03-31T16:25:29;98581.19;;;1.58;75.48
55347;BME280;41218;55.700;38.270;2023-03-31T16:35:41;98595.56;;;1.59;75.73
55347;BME280;41218;55.700;38.270;2023-03-31T16:40:44;98599.09;;;1.59;75.75
55347;BME280;41218;55.700;38.270;2023-03-31T16:45:58;98586.50;;;1.55;75.83
55347;BME280;41218;55.700;38.270;2023-03-31T16:51:00;98595.13;;;1.57;75.50
55347;BME280;41218;55.700;38.270;2023-03-31T16:56:03;98588.19;;;1.59;75.46
55347;BME280;41218;55.700;38.270;2023-03-31T17:01:07;98595.44;;;1.55;75.28
55347;BME280;41218;55.700;38.270;2023-03-31T17:06:10;98579.34;;;1.50;75.46
55347;BME280;41218;55.700;38.270;2023-03-31T17:11:11;98588.31;;;1.51;75.69
55347;BME280;41218;55.700;38.270;2023-03-31T17:16:13;98585.91;;;1.49;75.66
55347;BME280;41218;55.700;38.270;2023-03-31T17:21:15;98588.06;;;1.56;75.59
55347;BME280;41218;55.700;38.270;2023-03-31T17:26:18;98577.41;;;1.51;75.50
55347;BME280;41218;55.700;38.270;2023-03-31T17:31:20;98574.00;;;1.54;75.39
55347;BME280;41218;55.700;38.270;2023-03-31T17:36:20;98563.78;;;1.51;75.49
55347;BME280;41218;55.700;38.270;2023-03-31T17:41:21;98568.09;;;1.52;75.58
55347;BME280;41218;55.700;38.270;2023-03-31T17:46:22;98567.75;;;1.53;75.31
55347;BME280;41218;55.700;38.270;2023-03-31T17:51:23;98564.59;;;1.51;75.44
55347;BME280;41218;55.700;38.270;2023-03-31T17:56:24;98563.09;;;1.54;75.36
55347;BME280;41218;55.700;38.270;2023-03-31T18:01:24;98553.34;;;1.53;75.51
55347;BME280;41218;55.700;38.270;2023-03-31T18:06:25;98547.44;;;1.51;75.17
55347;BME280;41218;55.700;38.270;2023-03-31T18:11:26;98549.84;;;1.52;75.15
55347;BME280;41218;55.700;38.270;2023-03-31T18:16:30;98568.34;;;1.59;75.12
55347;BME280;41218;55.700;38.270;2023-03-31T18:21:30;98560.50;;;1.57;75.53
55347;BME280;41218;55.700;38.270;2023-03-31T18:26:31;98554.72;;;1.59;75.15
55347;BME280;41218;55.700;38.270;2023-03-31T18:31:32;98552.78;;;1.59;74.95
55347;BME280;41218;55.700;38.270;2023-03-31T18:36:34;98549.16;;;1.55;75.01
55347;BME280;41218;55.700;38.270;2023-03-31T18:41:34;98545.41;;;1.60;74.75
55347;BME280;41218;55.700;38.270;2023-03-31T18:46:35;98529.97;;;1.52;75.09
55347;BME280;41218;55.700;38.270;2023-03-31T18:51:36;98544.16;;;1.57;75.16
55347;BME280;41218;55.700;38.270;2023-03-31T18:56:37;98536.00;;;1.57;74.99
55347;BME280;41218;55.700;38.270;2023-03-31T19:01:38;98540.97;;;1.55;75.14
55347;BME280;41218;55.700;38.270;2023-03-31T19:06:39;98529.97;;;1.52;74.91
55347;BME280;41218;55.700;38.270;2023-03-31T19:11:40;98529.19;;;1.51;75.25
55347;BME280;41218;55.700;38.270;2023-03-31T19:16:41;98528.16;;;1.56;74.99
55347;BME280;41218;55.700;38.270;2023-03-31T19:21:44;98517.50;;;1.51;74.97
55347;BME280;41218;55.700;38.270;2023-03-31T19:26:44;98524.19;;;1.53;75.06
55347;BME280;41218;55.700;38.270;2023-03-31T19:31:45;98523.72;;;1.51;74.87
55347;BME280;41218;55.700;38.270;2023-03-31T19:36:46;98515.22;;;1.53;74.84
55347;BME280;41218;55.700;38.270;2023-03-31T19:41:47;98505.69;;;1.47;75.07
55347;BME280;41218;55.700;38.270;2023-03-31T19:46:47;98526.25;;;1.56;74.80
55347;BME280;41218;55.700;38.270;2023-03-31T19:51:48;98516.13;;;1.57;74.80
55347;BME280;41218;55.700;38.270;2023-03-31T19:56:48;98511.47;;;1.57;74.86
55347;BME280;41218;55.700;38.270;2023-03-31T20:01:49;98508.75;;;1.57;74.71
55347;BME280;41218;55.700;38.270;2023-03-31T20:06:50;98504.91;;;1.58;74.57
55347;BME280;41218;55.700;38.270;2023-03-31T20:11:52;98504.78;;;1.55;74.61
55347;BME280;41218;55.700;38.270;2023-03-31T20:16:54;98506.81;;;1.58;74.78
55347;BME280;41218;55.700;38.270;2023-03-31T20:21:54;98497.88;;;1.57;74.68
55347;BME280;41218;55.700;38.270;2023-03-31T20:26:57;98499.81;;;1.57;74.43
55347;BME280;41218;55.700;38.270;2023-03-31T20:31:58;98481.41;;;1.54;74.44
55347;BME280;41218;55.700;38.270;2023-03-31T20:36:58;98488.91;;;1.57;74.67
55347;BME280;41218;55.700;38.270;2023-03-31T20:41:59;98496.28;;;1.56;74.53
55347;BME280;41218;55.700;38.270;2023-03-31T20:46:59;98501.38;;;1.58;74.43
55347;BME280;41218;55.700;38.270;2023-03-31T20:52:00;98497.06;;;1.57;74.19
55347;BME280;41218;55.700;38.270;2023-03-31T20:57:01;98480.50;;;1.50;74.35
55347;BME280;41218;55.700;38.270;2023-03-31T21:02:09;98479.38;;;1.51;74.68
55347;BME280;41218;55.700;38.270;2023-03-31T21:07:15;98466.88;;;1.37;74.07
55347;BME280;41218;55.700;38.270;2023-03-31T21:12:16;98492.28;;;1.54;74.15
55347;BME280;41218;55.700;38.270;2023-03-31T21:17:16;98489.94;;;1.52;73.98
55347;BME280;41218;55.700;38.270;2023-03-31T21:22:17;98488.78;;;1.53;74.32
55347;BME280;41218;55.700;38.270;2023-03-31T21:27:17;98493.19;;;1.58;73.70
55347;BME280;41218;55.700;38.270;2023-03-31T21:32:18;98486.97;;;1.57;74.12
55347;BME280;41218;55.700;38.270;2023-03-31T21:37:18;98486.50;;;1.55;73.92
55347;BME280;41218;55.700;38.270;2023-03-31T21:42:19;98476.66;;;1.51;74.16
55347;BME280;41218;55.700;38.270;2023-03-31T21:47:20;98485.41;;;1.56;74.12
55347;BME280;41218;55.700;38.270;2023-03-31T21:52:21;98488.91;;;1.57;74.04
55347;BME280;41218;55.700;38.270;2023-03-31T21:57:22;98475.63;;;1.55;74.16
55347;BME280;41218;55.700;38.270;2023-03-31T22:02:22;98469.38;;;1.55;74.05
55347;BME280;41218;55.700;38.270;2023-03-31T22:07:23;98466.53;;;1.51;74.24
55347;BME280;41218;55.700;38.270;2023-03-31T22:12:24;98468.59;;;1.54;73.95
55347;BME280;41218;55.700;38.270;2023-03-31T22:17:25;98470.97;;;1.56;73.78
55347;BME280;41218;55.700;38.270;2023-03-31T22:22:27;98475.28;;;1.57;74.09
55347;BME280;41218;55.700;38.270;2023-03-31T22:27:27;98465.19;;;1.57;73.90
55347;BME280;41218;55.700;38.270;2023-03-31T22:32:28;98441.47;;;1.46;73.94
55347;BME280;41218;55.700;38.270;2023-03-31T22:37:28;98455.44;;;1.56;73.83
55347;BME280;41218;55.700;38.270;2023-03-31T22:42:29;98450.00;;;1.56;73.66
55347;BME280;41218;55.700;38.270;2023-03-31T22:47:29;98454.28;;;1.57;73.88
55347;BME280;41218;55.700;38.270;2023-03-31T22:52:30;98444.53;;;1.56;73.75
55347;BME280;41218;55.700;38.270;2023-03-31T22:57:30;98448.06;;;1.57;73.97
55347;BME280;41218;55.700;38.270;2023-03-31T23:02:31;98457.78;;;1.58;73.52
55347;BME280;41218;55.700;38.270;2023-03-31T23:07:33;98456.22;;;1.57;73.77
55347;BME280;41218;55.700;38.270;2023-03-31T23:12:34;98446.44;;;1.56;73.86
55347;BME280;41218;55.700;38.270;2023-03-31T23:17:34;98444.31;;;1.49;73.71
55347;BME280;41218;55.700;38.270;2023-03-31T23:22:35;98447.16;;;1.53;73.59
55347;BME280;41218;55.700;38.270;2023-03-31T23:27:36;98439.56;;;1.46;73.68
55347;BME280;41218;55.700;38.270;2023-03-31T23:32:36;98457.34;;;1.56;73.88
55347;BME280;41218;55.700;38.270;2023-03-31T23:37:37;98435.81;;;1.51;73.77
55347;BME280;41218;55.700;38.270;2023-03-31T23:42:38;98440.56;;;1.54;74.07
55347;BME280;41218;55.700;38.270;2023-03-31T23:47:38;98439.44;;;1.55;73.87
55347;BME280;41218;55.700;38.270;2023-03-31T23:52:39;98443.06;;;1.59;73.62
55347;BME280;41218;55.700;38.270;2023-03-31T23:57:40;98440.91;;;1.52;73.72
